createdAt,value
2023-03-02T00:00:18.069Z,100601.91
2023-03-02T00:02:48.814Z,100608.47
2023-03-02T00:05:19.976Z,100612.41
2023-03-02T00:07:51.100Z,100619.00
2023-03-02T00:10:21.350Z,100632.88
2023-03-02T00:12:52.137Z,100621.13
2023-03-02T00:15:25.120Z,100616.16
2023-03-02T00:17:55.681Z,100620.78
2023-03-02T00:20:26.595Z,100619.31
2023-03-02T00:22:58.952Z,100619.53
2023-03-02T00:25:29.972Z,100617.03
2023-03-02T00:28:00.484Z,100617.22
2023-03-02T00:30:30.658Z,100624.50
2023-03-02T00:33:01.156Z,100629.13
2023-03-02T00:35:31.149Z,100645.00
2023-03-02T00:38:01.726Z,100648.75
2023-03-02T00:40:31.853Z,100649.44
2023-03-02T00:43:02.416Z,100650.91
2023-03-02T00:45:32.953Z,100638.94
2023-03-02T00:48:03.405Z,100640.53
2023-03-02T00:50:34.298Z,100635.72
2023-03-02T00:53:06.788Z,100639.81
2023-03-02T00:55:37.808Z,100650.28
2023-03-02T00:58:08.848Z,100662.19
2023-03-02T01:00:39.350Z,100675.75
2023-03-02T01:03:11.535Z,100683.06
2023-03-02T01:05:41.712Z,100678.97
2023-03-02T01:08:12.348Z,100674.88
2023-03-02T01:10:42.997Z,100682.53
2023-03-02T01:13:13.781Z,100677.19
2023-03-02T01:15:43.993Z,100679.69
2023-03-02T01:18:14.655Z,100685.53
2023-03-02T01:20:44.856Z,100688.94
2023-03-02T01:23:15.338Z,100690.38
2023-03-02T01:25:45.313Z,100685.53
2023-03-02T01:28:15.768Z,100693.53
2023-03-02T01:30:45.803Z,100695.28
2023-03-02T01:33:16.423Z,100685.81
2023-03-02T01:35:48.419Z,100689.56
2023-03-02T01:38:18.977Z,100686.06
2023-03-02T01:40:49.082Z,100693.22
2023-03-02T01:43:19.643Z,100693.03
2023-03-02T01:45:57.129Z,100697.31
2023-03-02T01:48:51.180Z,100689.47
2023-03-02T01:51:33.425Z,100688.06
2023-03-02T01:54:07.991Z,100678.13
2023-03-02T01:56:42.648Z,100669.38
2023-03-02T01:59:18.215Z,100670.81
2023-03-02T02:01:54.215Z,100679.16
2023-03-02T02:04:27.272Z,100666.16
2023-03-02T02:07:04.540Z,100671.69
2023-03-02T02:09:52.624Z,100681.44
2023-03-02T02:12:24.953Z,100672.00
2023-03-02T02:15:01.667Z,100662.63
2023-03-02T02:17:32.648Z,100667.44
2023-03-02T02:20:20.714Z,100678.44
2023-03-02T02:23:07.678Z,100680.22
2023-03-02T02:26:03.028Z,100678.41
2023-03-02T02:28:39.676Z,100673.56
2023-03-02T02:31:38.361Z,100667.34
2023-03-02T02:34:23.651Z,100672.91
2023-03-02T02:37:07.428Z,100666.28
2023-03-02T02:39:42.476Z,100669.16
2023-03-02T02:42:34.925Z,100669.38
2023-03-02T02:45:28.007Z,100673.09
2023-03-02T02:47:58.687Z,100659.75
2023-03-02T02:50:36.122Z,100657.28
2023-03-02T02:53:12.966Z,100661.53
2023-03-02T02:55:44.475Z,100657.97
2023-03-02T02:58:48.682Z,100657.97
2023-03-02T03:01:21.984Z,100664.69
2023-03-02T03:03:55.736Z,100670.06
2023-03-02T03:06:31.584Z,100656.00
2023-03-02T03:09:05.513Z,100661.84
2023-03-02T03:11:48.474Z,100665.91
2023-03-02T03:14:22.633Z,100661.97
2023-03-02T03:16:55.288Z,100658.03
2023-03-02T03:19:30.290Z,100655.22
2023-03-02T03:22:03.572Z,100651.63
2023-03-02T03:24:37.575Z,100648.28
2023-03-02T03:27:09.952Z,100632.63
2023-03-02T03:29:46.640Z,100639.53
2023-03-02T03:32:19.238Z,100640.25
2023-03-02T03:34:50.858Z,100643.31
2023-03-02T03:37:26.755Z,100639.22
2023-03-02T03:39:57.444Z,100632.28
2023-03-02T03:42:28.609Z,100627.16
2023-03-02T03:45:00.160Z,100635.19
2023-03-02T03:47:30.730Z,100632.34
2023-03-02T03:50:00.805Z,100628.25
2023-03-02T03:52:32.640Z,100616.47
2023-03-02T03:55:10.849Z,100612.03
2023-03-02T03:57:41.563Z,100611.28
2023-03-02T04:00:23.674Z,100615.53
2023-03-02T04:03:06.800Z,100621.44
2023-03-02T04:05:37.061Z,100608.81
2023-03-02T04:08:09.073Z,100608.31
2023-03-02T04:10:39.780Z,100606.69
2023-03-02T04:13:10.431Z,100604.00
2023-03-02T04:15:43.646Z,100603.69
2023-03-02T04:18:15.618Z,100591.03
2023-03-02T04:20:45.784Z,100599.56
2023-03-02T04:23:16.322Z,100593.19
2023-03-02T04:25:46.423Z,100587.50
2023-03-02T04:28:21.706Z,100590.88
2023-03-02T04:30:52.687Z,100584.31
2023-03-02T04:33:23.402Z,100569.50
2023-03-02T04:35:55.729Z,100573.06
2023-03-02T04:38:30.698Z,100578.06
2023-03-02T04:41:01.266Z,100566.31
2023-03-02T04:43:33.391Z,100560.09
2023-03-02T04:46:03.583Z,100560.59
2023-03-02T04:48:34.143Z,100559.00
2023-03-02T04:51:04.240Z,100550.81
2023-03-02T04:53:34.769Z,100551.50
2023-03-02T04:56:04.933Z,100546.69
2023-03-02T04:58:35.483Z,100543.66
2023-03-02T05:01:05.647Z,100541.00
2023-03-02T05:03:36.270Z,100538.31
2023-03-02T05:06:06.615Z,100540.09
2023-03-02T05:08:37.304Z,100528.34
2023-03-02T05:11:09.021Z,100523.03
2023-03-02T05:13:39.627Z,100515.38
2023-03-02T05:16:09.851Z,100529.59
2023-03-02T05:18:40.392Z,100518.06
2023-03-02T05:21:11.251Z,100514.47
2023-03-02T05:23:42.380Z,100518.94
2023-03-02T05:26:12.764Z,100523.41
2023-03-02T05:28:43.703Z,100523.41
2023-03-02T05:31:32.165Z,100522.31
2023-03-02T05:34:03.843Z,100526.06
2023-03-02T05:36:34.298Z,100513.94
2023-03-02T05:39:05.236Z,100513.44
2023-03-02T05:41:36.891Z,100510.56
2023-03-02T05:44:10.696Z,100508.09
2023-03-02T05:46:41.022Z,100503.28
2023-03-02T05:49:11.953Z,100495.13
2023-03-02T05:51:42.066Z,100494.22
2023-03-02T05:54:12.612Z,100490.09
2023-03-02T05:56:43.082Z,100494.56
2023-03-02T05:59:13.621Z,100481.94
2023-03-02T06:01:43.727Z,100481.22
2023-03-02T06:04:14.589Z,100482.31
2023-03-02T06:06:45.641Z,100476.44
2023-03-02T06:09:16.171Z,100475.53
2023-03-02T06:11:46.753Z,100475.75
2023-03-02T06:14:17.310Z,100472.53
2023-03-02T06:16:49.897Z,100469.88
2023-03-02T06:19:20.546Z,100469.88
2023-03-02T06:21:50.643Z,100478.75
2023-03-02T06:24:21.280Z,100475.00
2023-03-02T06:26:51.397Z,100475.56
2023-03-02T06:29:22.639Z,100468.44
2023-03-02T06:31:53.067Z,100470.91
2023-03-02T06:34:23.731Z,100482.13
2023-03-02T06:36:53.803Z,100479.84
2023-03-02T06:39:24.928Z,100472.91
2023-03-02T06:41:55.094Z,100471.63
2023-03-02T06:44:25.618Z,100478.56
2023-03-02T06:46:55.643Z,100478.56
2023-03-02T06:49:26.157Z,100481.06
2023-03-02T06:51:56.201Z,100476.25
2023-03-02T06:54:26.722Z,100475.72
2023-03-02T06:56:58.917Z,100482.28
2023-03-02T06:59:28.922Z,100477.84
2023-03-02T07:01:58.709Z,100473.59
2023-03-02T07:04:31.874Z,100465.22
2023-03-02T07:07:02.376Z,100465.59
2023-03-02T07:09:35.323Z,100464.34
2023-03-02T07:12:05.888Z,100464.19
2023-03-02T07:14:37.791Z,100466.28
2023-03-02T07:17:08.375Z,100461.66
2023-03-02T07:19:40.981Z,100465.78
2023-03-02T07:22:11.570Z,100477.16
2023-03-02T07:24:42.991Z,100469.34
2023-03-02T07:27:14.605Z,100467.88
2023-03-02T07:29:44.730Z,100468.25
2023-03-02T07:32:15.237Z,100464.34
2023-03-02T07:34:45.361Z,100473.38
2023-03-02T07:37:15.214Z,100463.78
2023-03-02T07:39:45.909Z,100479.63
2023-03-02T07:42:16.401Z,100472.34
2023-03-02T07:44:53.415Z,100479.81
2023-03-02T07:47:23.786Z,100476.09
2023-03-02T07:49:54.327Z,100478.03
2023-03-02T07:52:24.672Z,100479.09
2023-03-02T07:54:55.208Z,100481.16
2023-03-02T07:57:25.399Z,100474.97
2023-03-02T07:59:55.867Z,100477.09
2023-03-02T08:02:26.630Z,100474.78
2023-03-02T08:04:57.532Z,100482.94
2023-03-02T08:07:27.676Z,100490.06
2023-03-02T08:09:59.233Z,100485.63
2023-03-02T08:12:30.183Z,100492.91
2023-03-02T08:15:01.716Z,100491.50
2023-03-02T08:17:33.601Z,100495.56
2023-03-02T08:20:05.593Z,100496.47
2023-03-02T08:22:36.021Z,100502.19
2023-03-02T08:25:07.108Z,100510.03
2023-03-02T08:27:37.407Z,100514.28
2023-03-02T08:30:08.983Z,100510.56
2023-03-02T08:32:39.230Z,100518.34
2023-03-02T08:35:10.570Z,100521.91
2023-03-02T08:37:40.608Z,100515.19
2023-03-02T08:40:11.168Z,100521.06
2023-03-02T08:42:41.906Z,100532.28
2023-03-02T08:45:12.271Z,100515.00
2023-03-02T08:47:42.810Z,100528.66
2023-03-02T08:50:13.253Z,100533.44
2023-03-02T08:52:43.812Z,100529.53
2023-03-02T08:55:15.099Z,100528.84
2023-03-02T08:57:45.536Z,100537.59
2023-03-02T09:00:17.543Z,100537.91
2023-03-02T09:02:48.039Z,100532.97
2023-03-02T09:05:18.353Z,100536.50
2023-03-02T09:07:49.993Z,100533.28
2023-03-02T09:10:20.282Z,100537.38
2023-03-02T09:12:51.302Z,100537.56
2023-03-02T09:15:21.383Z,100541.28
2023-03-02T09:17:51.978Z,100537.88
2023-03-02T09:20:22.947Z,100541.63
2023-03-02T09:22:53.491Z,100535.75
2023-03-02T09:25:23.696Z,100542.69
2023-03-02T09:27:54.142Z,100538.97
2023-03-02T09:30:24.235Z,100541.44
2023-03-02T09:32:54.855Z,100550.72
2023-03-02T09:35:25.004Z,100549.47
2023-03-02T09:37:55.934Z,100551.28
2023-03-02T09:40:28.810Z,100557.03
2023-03-02T09:43:07.026Z,100571.09
2023-03-02T09:45:55.643Z,100568.41
2023-03-02T09:48:32.169Z,100563.78
2023-03-02T09:51:22.821Z,100568.13
2023-03-02T09:54:11.980Z,100556.91
2023-03-02T09:56:47.028Z,100572.72
2023-03-02T09:59:24.488Z,100565.47
2023-03-02T10:02:02.519Z,100560.84
2023-03-02T10:04:47.294Z,100567.00
2023-03-02T10:07:29.026Z,100564.69
2023-03-02T10:10:06.195Z,100567.72
2023-03-02T10:13:01.134Z,100564.84
2023-03-02T10:16:06.554Z,100583.09
2023-03-02T10:18:43.177Z,100579.84
2023-03-02T10:21:31.467Z,100583.50
2023-03-02T10:24:31.549Z,100594.00
2023-03-02T10:27:39.380Z,100597.47
2023-03-02T10:30:32.519Z,100604.44
2023-03-02T10:33:13.581Z,100596.53
2023-03-02T10:35:49.761Z,100597.22
2023-03-02T10:38:22.664Z,100606.81
2023-03-02T10:40:58.179Z,100606.50
2023-03-02T10:43:52.615Z,100611.34
2023-03-02T10:46:22.909Z,100604.19
2023-03-02T10:48:57.520Z,100612.00
2023-03-02T10:51:36.708Z,100612.34
2023-03-02T10:54:14.076Z,100610.00
2023-03-02T10:56:50.197Z,100599.91
2023-03-02T10:59:49.436Z,100602.50
2023-03-02T11:02:25.304Z,100605.47
2023-03-02T11:04:59.067Z,100614.94
2023-03-02T11:07:31.221Z,100614.22
2023-03-02T11:10:04.286Z,100600.47
2023-03-02T11:12:37.962Z,100607.91
2023-03-02T11:15:25.208Z,100610.00
2023-03-02T11:18:22.295Z,100614.66
2023-03-02T11:20:56.487Z,100611.44
2023-03-02T11:23:37.966Z,100624.69
2023-03-02T11:26:35.344Z,100627.53
2023-03-02T11:29:28.336Z,100616.84
2023-03-02T11:32:20.918Z,100603.63
2023-03-02T11:35:02.173Z,100615.78
2023-03-02T11:37:41.767Z,100614.53
2023-03-02T11:40:31.828Z,100613.88
2023-03-02T11:43:06.031Z,100631.19
2023-03-02T11:45:45.274Z,100628.47
2023-03-02T11:48:30.603Z,100620.75
2023-03-02T11:51:03.433Z,100613.44
2023-03-02T11:53:52.156Z,100617.19
2023-03-02T11:56:22.626Z,100621.22
2023-03-02T11:59:00.614Z,100614.66
2023-03-02T12:01:32.696Z,100609.03
2023-03-02T12:04:37.248Z,100619.59
2023-03-02T12:07:24.249Z,100618.66
2023-03-02T12:10:32.709Z,100607.56
2023-03-02T12:13:22.829Z,100613.47
2023-03-02T12:15:54.248Z,100616.41
2023-03-02T12:18:24.302Z,100617.34
2023-03-02T12:21:17.176Z,100624.31
2023-03-02T12:23:53.347Z,100610.56
2023-03-02T12:26:23.721Z,100605.59
2023-03-02T12:29:10.943Z,100601.41
2023-03-02T12:31:42.533Z,100604.66
2023-03-02T12:34:27.260Z,100608.09
2023-03-02T12:37:02.752Z,100608.91
2023-03-02T12:40:02.775Z,100609.47
2023-03-02T12:42:36.619Z,100611.47
2023-03-02T12:45:25.814Z,100617.53
2023-03-02T12:48:06.267Z,100617.06
2023-03-02T12:50:40.701Z,100608.34
2023-03-02T12:53:20.391Z,100606.91
2023-03-02T12:55:50.613Z,100608.88
2023-03-02T12:58:24.641Z,100605.78
2023-03-02T13:01:01.189Z,100606.75
2023-03-02T13:03:33.216Z,100603.38
2023-03-02T13:06:11.937Z,100602.78
2023-03-02T13:08:46.615Z,100598.41
2023-03-02T13:11:22.937Z,100603.94
2023-03-02T13:13:53.485Z,100600.50
2023-03-02T13:16:26.380Z,100606.91
2023-03-02T13:18:59.659Z,100607.53
2023-03-02T13:21:35.394Z,100601.31
2023-03-02T13:24:26.401Z,100609.00
2023-03-02T13:27:08.243Z,100597.16
2023-03-02T13:29:38.772Z,100581.78
2023-03-02T13:32:22.342Z,100595.44
2023-03-02T13:34:58.917Z,100594.72
2023-03-02T13:37:44.878Z,100588.72
2023-03-02T13:40:24.191Z,100586.84
2023-03-02T13:42:55.218Z,100582.69
2023-03-02T13:45:34.879Z,100578.53
2023-03-02T13:48:19.177Z,100579.06
2023-03-02T13:51:04.449Z,100578.72
2023-03-02T13:53:39.104Z,100570.13
2023-03-02T13:56:12.581Z,100553.03
2023-03-02T13:58:42.854Z,100553.03
2023-03-02T14:01:15.065Z,100559.91
2023-03-02T14:03:45.146Z,100555.69
2023-03-02T14:06:15.692Z,100561.22
2023-03-02T14:08:47.118Z,100551.66
2023-03-02T14:11:19.108Z,100550.31
2023-03-02T14:13:56.598Z,100548.88
2023-03-02T14:16:27.764Z,100552.94
2023-03-02T14:18:58.052Z,100540.63
2023-03-02T14:21:28.565Z,100543.38
2023-03-02T14:24:00.186Z,100553.03
2023-03-02T14:26:37.345Z,100544.75
2023-03-02T14:29:29.655Z,100536.97
2023-03-02T14:32:04.748Z,100540.53
2023-03-02T14:34:37.038Z,100537.88
2023-03-02T14:37:16.442Z,100539.13
2023-03-02T14:39:55.326Z,100542.00
2023-03-02T14:42:26.340Z,100529.56
2023-03-02T14:44:56.990Z,100526.06
2023-03-02T14:47:27.068Z,100524.75
2023-03-02T14:49:57.646Z,100526.75
2023-03-02T14:52:35.904Z,100522.03
2023-03-02T14:55:31.062Z,100506.84
2023-03-02T14:58:07.305Z,100508.84
2023-03-02T15:00:38.019Z,100498.59
2023-03-02T15:03:08.091Z,100491.00
2023-03-02T15:05:39.588Z,100493.06
2023-03-02T15:08:14.983Z,100499.25
2023-03-02T15:10:48.155Z,100493.06
2023-03-02T15:13:18.581Z,100484.75
2023-03-02T15:16:44.305Z,100485.72
2023-03-02T15:19:33.319Z,100473.44
2023-03-02T15:22:03.433Z,100475.88
2023-03-02T15:24:33.558Z,100462.94
2023-03-02T15:27:03.664Z,100468.84
2023-03-02T15:29:32.925Z,100471.38
2023-03-02T15:32:02.446Z,100472.03
2023-03-02T15:34:31.821Z,100461.38
2023-03-02T15:37:01.785Z,100461.81
2023-03-02T15:39:31.252Z,100453.09
2023-03-02T15:42:00.923Z,100456.34
2023-03-02T15:44:31.592Z,100443.97
2023-03-02T15:47:02.123Z,100445.44
2023-03-02T15:49:33.915Z,100439.03
2023-03-02T15:52:03.255Z,100439.75
2023-03-02T15:54:33.390Z,100430.38
2023-03-02T15:57:03.277Z,100426.09
2023-03-02T15:59:33.609Z,100426.63
2023-03-02T16:02:03.589Z,100423.59
2023-03-02T16:04:35.615Z,100421.56
2023-03-02T16:07:06.515Z,100415.84
2023-03-02T16:09:38.181Z,100417.38
2023-03-02T16:12:08.089Z,100412.44
2023-03-02T16:14:38.298Z,100411.75
2023-03-02T16:17:08.107Z,100401.16
2023-03-02T16:19:38.863Z,100399.06
2023-03-02T16:22:08.603Z,100397.66
2023-03-02T16:24:38.745Z,100392.63
2023-03-02T16:27:10.416Z,100392.94
2023-03-02T16:29:40.181Z,100403.06
2023-03-02T16:32:10.778Z,100394.34
2023-03-02T16:34:40.577Z,100394.19
2023-03-02T16:37:10.940Z,100392.13
2023-03-02T16:39:40.547Z,100393.94
2023-03-02T16:42:10.312Z,100395.09
2023-03-02T16:44:40.567Z,100400.78
2023-03-02T16:47:10.328Z,100388.88
2023-03-02T16:49:40.481Z,100391.72
2023-03-02T16:52:10.255Z,100385.50
2023-03-02T16:54:40.038Z,100387.88
2023-03-02T16:57:10.711Z,100383.56
2023-03-02T16:59:40.720Z,100379.88
2023-03-02T17:02:12.962Z,100379.63
2023-03-02T17:04:42.870Z,100380.47
2023-03-02T17:07:13.077Z,100368.69
2023-03-02T17:09:42.852Z,100375.16
2023-03-02T17:12:12.669Z,100370.00
2023-03-02T17:14:43.015Z,100364.25
2023-03-02T17:17:12.797Z,100364.88
2023-03-02T17:19:42.992Z,100357.88
2023-03-02T17:22:13.002Z,100362.34
2023-03-02T17:24:43.183Z,100356.75
2023-03-02T17:27:24.230Z,100355.59
2023-03-02T17:29:56.091Z,100357.75
2023-03-02T17:32:26.026Z,100356.59
2023-03-02T17:34:55.822Z,100356.63
2023-03-02T17:37:27.194Z,100352.44
2023-03-02T17:39:57.177Z,100357.31
2023-03-02T17:42:28.066Z,100348.97
2023-03-02T17:44:58.507Z,100346.28
2023-03-02T17:47:28.356Z,100345.59
2023-03-02T17:49:59.470Z,100333.84
2023-03-02T17:52:30.708Z,100328.34
2023-03-02T17:55:00.861Z,100327.25
2023-03-02T17:57:30.412Z,100329.72
2023-03-02T18:00:00.242Z,100332.13
2023-03-02T18:02:29.888Z,100335.91
2023-03-02T18:05:00.412Z,100333.53
2023-03-02T18:07:30.150Z,100339.53
2023-03-02T18:09:59.793Z,100343.94
2023-03-02T18:12:30.026Z,100333.88
2023-03-02T18:15:00.798Z,100325.84
2023-03-02T18:17:31.379Z,100330.34
2023-03-02T18:20:01.204Z,100326.81
2023-03-02T18:22:31.780Z,100331.72
2023-03-02T18:25:02.011Z,100324.94
2023-03-02T18:27:31.726Z,100329.03
2023-03-02T18:30:01.719Z,100329.13
2023-03-02T18:32:32.060Z,100340.69
2023-03-02T18:35:01.958Z,100342.59
2023-03-02T18:37:34.967Z,100342.97
2023-03-02T18:40:05.812Z,100353.09
2023-03-02T18:42:36.378Z,100353.94
2023-03-02T18:45:07.701Z,100345.97
2023-03-02T18:47:38.223Z,100347.53
2023-03-02T18:50:08.414Z,100356.44
2023-03-02T18:52:38.575Z,100354.19
2023-03-02T18:55:10.045Z,100354.47
2023-03-02T18:57:41.084Z,100344.00
2023-03-02T19:00:17.486Z,100349.16
2023-03-02T19:02:47.668Z,100345.63
2023-03-02T19:05:20.588Z,100343.78
2023-03-02T19:07:51.185Z,100338.22
2023-03-02T19:10:21.868Z,100337.75
2023-03-02T19:12:52.074Z,100342.31
2023-03-02T19:15:22.017Z,100346.25
2023-03-02T19:17:53.016Z,100342.91
2023-03-02T19:20:22.959Z,100344.63
2023-03-02T19:22:53.170Z,100336.91
2023-03-02T19:25:22.810Z,100330.47
2023-03-02T19:27:53.021Z,100337.81
2023-03-02T19:30:26.407Z,100343.84
2023-03-02T19:32:56.714Z,100343.16
2023-03-02T19:35:29.557Z,100344.34
2023-03-02T19:37:59.382Z,100344.34
2023-03-02T19:40:31.326Z,100350.72
2023-03-02T19:43:02.071Z,100351.81
2023-03-02T19:45:33.929Z,100357.91
2023-03-02T19:48:05.013Z,100363.66
2023-03-02T19:50:34.819Z,100359.75
2023-03-02T19:53:05.111Z,100347.56
2023-03-02T19:55:36.957Z,100352.03
2023-03-02T19:58:09.076Z,100354.00
2023-03-02T20:00:39.962Z,100356.94
2023-03-02T20:03:10.274Z,100362.31
2023-03-02T20:05:40.572Z,100363.31
2023-03-02T20:08:10.972Z,100355.59
2023-03-02T20:10:47.883Z,100354.91
2023-03-02T20:13:18.923Z,100357.22
2023-03-02T20:15:49.325Z,100367.06
2023-03-02T20:18:21.540Z,100391.56
2023-03-02T20:20:51.302Z,100405.41
2023-03-02T20:23:20.939Z,100413.34
2023-03-02T20:25:51.256Z,100423.97
2023-03-02T20:28:26.677Z,100445.19
2023-03-02T20:30:59.786Z,100467.09
2023-03-02T20:33:36.637Z,100472.28
2023-03-02T20:36:11.710Z,100487.41
2023-03-02T20:38:47.969Z,100509.84
2023-03-02T20:41:20.442Z,100515.78
2023-03-02T20:43:54.839Z,100513.50
2023-03-02T20:46:30.205Z,100509.16
2023-03-02T20:49:00.527Z,100509.22
2023-03-02T20:51:31.524Z,100509.63
2023-03-02T20:54:01.490Z,100509.41
2023-03-02T20:56:31.896Z,100518.31
2023-03-02T20:59:01.793Z,100525.16
2023-03-02T21:01:31.519Z,100536.91
2023-03-02T21:04:01.735Z,100532.84
2023-03-02T21:06:35.564Z,100531.63
2023-03-02T21:09:09.800Z,100528.59
2023-03-02T21:11:43.354Z,100528.47
2023-03-02T21:14:16.915Z,100518.16
2023-03-02T21:16:49.694Z,100520.41
2023-03-02T21:19:22.396Z,100517.84
2023-03-02T21:21:53.510Z,100516.84
2023-03-02T21:24:29.533Z,100517.28
2023-03-02T21:27:02.645Z,100505.41
2023-03-02T21:29:34.473Z,100501.28
2023-03-02T21:32:10.374Z,100501.59
2023-03-02T21:34:42.289Z,100493.25
2023-03-02T21:37:14.712Z,100493.38
2023-03-02T21:39:46.621Z,100500.59
2023-03-02T21:42:17.905Z,100500.16
2023-03-02T21:44:49.741Z,100509.19
2023-03-02T21:47:20.646Z,100510.50
2023-03-02T21:49:52.691Z,100517.19
2023-03-02T21:52:24.137Z,100531.69
2023-03-02T21:54:56.928Z,100532.38
2023-03-02T21:57:28.232Z,100536.72
2023-03-02T22:00:00.169Z,100543.25
2023-03-02T22:02:35.457Z,100552.63
2023-03-02T22:05:07.533Z,100557.75
2023-03-02T22:07:38.750Z,100573.03
2023-03-02T22:10:21.209Z,100583.94
2023-03-02T22:12:58.602Z,100581.50
2023-03-02T22:15:30.399Z,100584.25
2023-03-02T22:18:01.771Z,100580.84
2023-03-02T22:20:34.559Z,100590.50
2023-03-02T22:23:15.828Z,100589.97
2023-03-02T22:25:47.540Z,100583.22
2023-03-02T22:28:31.688Z,100587.41
2023-03-02T22:31:22.244Z,100601.09
2023-03-02T22:33:53.442Z,100601.28
2023-03-02T22:36:27.149Z,100607.41
2023-03-02T22:39:03.920Z,100599.75
2023-03-02T22:41:38.289Z,100597.22
2023-03-02T22:44:15.278Z,100601.84
2023-03-02T22:46:47.469Z,100584.88
2023-03-02T22:49:20.585Z,100586.25
2023-03-02T22:51:52.873Z,100587.66
2023-03-02T22:54:39.408Z,100592.34
2023-03-02T22:57:40.498Z,100596.47
2023-03-02T23:00:23.080Z,100600.41
2023-03-02T23:02:56.748Z,100609.88
2023-03-02T23:05:31.539Z,100607.81
2023-03-02T23:08:24.766Z,100609.44
2023-03-02T23:10:58.935Z,100623.41
2023-03-02T23:13:43.198Z,100629.03
2023-03-02T23:16:26.521Z,100637.22
2023-03-02T23:19:00.544Z,100637.06
2023-03-02T23:21:47.976Z,100633.13
2023-03-02T23:24:20.616Z,100621.53
2023-03-02T23:26:52.182Z,100619.38
2023-03-02T23:29:24.285Z,100622.63
2023-03-02T23:31:55.967Z,100624.59
2023-03-02T23:34:27.717Z,100628.66
2023-03-02T23:37:00.497Z,100630.75
2023-03-02T23:39:32.415Z,100628.53
2023-03-02T23:42:03.848Z,100615.22
2023-03-02T23:44:35.890Z,100598.66
2023-03-02T23:47:07.650Z,100594.63
2023-03-02T23:49:39.603Z,100579.66
2023-03-02T23:52:10.669Z,100566.63
2023-03-02T23:54:44.373Z,100570.25
2023-03-02T23:57:16.062Z,100577.31
2023-03-02T23:59:47.971Z,100577.38
